createdAt,value
2023-05-05T00:01:24.924Z,10.92
2023-05-05T00:03:51.868Z,10.89
2023-05-05T00:06:18.731Z,10.86
2023-05-05T00:08:46.437Z,10.73
2023-05-05T00:11:13.308Z,10.81
2023-05-05T00:13:40.118Z,10.79
2023-05-05T00:16:07.207Z,10.77
2023-05-05T00:18:34.052Z,10.74
2023-05-05T00:21:01.090Z,10.75
2023-05-05T00:23:27.883Z,10.71
2023-05-05T00:25:54.807Z,10.71
2023-05-05T00:28:22.042Z,10.69
2023-05-05T00:30:49.044Z,10.70
2023-05-05T00:33:15.969Z,10.69
2023-05-05T00:35:42.889Z,10.68
2023-05-05T00:38:09.644Z,10.67
2023-05-05T00:40:38.032Z,10.63
2023-05-05T00:43:05.346Z,10.63
2023-05-05T00:45:32.226Z,10.61
2023-05-05T00:48:00.207Z,10.57
2023-05-05T00:50:29.238Z,10.57
2023-05-05T00:53:07.036Z,10.56
2023-05-05T00:55:35.096Z,10.53
2023-05-05T00:58:04.096Z,10.54
2023-05-05T01:00:31.176Z,10.53
2023-05-05T01:02:58.312Z,10.53
2023-05-05T01:05:27.947Z,10.53
2023-05-05T01:08:09.973Z,10.52
2023-05-05T01:10:48.878Z,10.52
2023-05-05T01:13:36.844Z,10.51
2023-05-05T01:16:19.643Z,10.51
2023-05-05T01:19:24.722Z,10.52
2023-05-05T01:21:57.228Z,10.49
2023-05-05T01:25:02.412Z,10.52
2023-05-05T01:27:41.444Z,10.53
2023-05-05T01:30:29.819Z,10.47
2023-05-05T01:33:04.057Z,10.51
2023-05-05T01:35:43.895Z,10.51
2023-05-05T01:38:19.396Z,10.50
2023-05-05T01:40:51.134Z,10.47
2023-05-05T01:43:20.474Z,10.49
2023-05-05T01:45:49.151Z,10.49
2023-05-05T01:48:19.818Z,10.48
2023-05-05T01:50:48.005Z,10.49
2023-05-05T01:53:17.685Z,10.47
2023-05-05T01:55:47.020Z,10.49
2023-05-05T01:58:16.080Z,10.50
2023-05-05T02:00:44.697Z,10.51
2023-05-05T02:03:14.989Z,10.53
2023-05-05T02:05:43.969Z,10.54
2023-05-05T02:08:11.783Z,10.56
2023-05-05T02:10:43.637Z,10.58
2023-05-05T02:13:12.915Z,10.60
2023-05-05T02:15:41.192Z,10.58
2023-05-05T02:18:08.688Z,10.61
2023-05-05T02:20:38.775Z,10.63
2023-05-05T02:23:08.005Z,10.64
2023-05-05T02:25:42.411Z,10.63
2023-05-05T02:28:35.608Z,10.63
2023-05-05T02:31:05.211Z,10.65
2023-05-05T02:33:34.177Z,10.61
2023-05-05T02:36:10.044Z,10.61
2023-05-05T02:38:40.491Z,10.59
2023-05-05T02:41:12.631Z,10.60
2023-05-05T02:43:42.709Z,10.57
2023-05-05T02:46:09.562Z,10.57
2023-05-05T02:48:36.337Z,10.57
2023-05-05T02:51:03.105Z,10.55
2023-05-05T02:53:30.011Z,10.56
2023-05-05T02:56:08.442Z,10.54
2023-05-05T02:58:52.024Z,10.56
2023-05-05T03:01:43.485Z,10.54
2023-05-05T03:04:16.147Z,10.54
2023-05-05T03:06:46.994Z,10.52
2023-05-05T03:09:21.342Z,10.53
2023-05-05T03:11:54.968Z,10.53
2023-05-05T03:14:22.755Z,10.51
2023-05-05T03:16:50.398Z,10.50
2023-05-05T03:19:18.913Z,10.51
2023-05-05T03:21:45.912Z,10.42
2023-05-05T03:24:14.431Z,10.47
2023-05-05T03:26:41.834Z,10.49
2023-05-05T03:29:08.667Z,10.50
2023-05-05T03:31:35.632Z,10.48
2023-05-05T03:34:02.676Z,10.47
2023-05-05T03:36:30.045Z,10.46
2023-05-05T03:38:56.788Z,10.43
2023-05-05T03:41:24.037Z,10.44
2023-05-05T03:43:51.406Z,10.39
2023-05-05T03:46:18.319Z,10.43
2023-05-05T03:48:45.338Z,10.42
2023-05-05T03:51:13.185Z,10.41
2023-05-05T03:53:39.938Z,10.42
2023-05-05T03:56:06.938Z,10.42
2023-05-05T03:58:33.691Z,10.42
2023-05-05T04:01:00.697Z,10.43
2023-05-05T04:03:27.650Z,10.42
2023-05-05T04:05:54.481Z,10.43
2023-05-05T04:08:21.245Z,10.43
2023-05-05T04:10:48.012Z,10.42
2023-05-05T04:13:14.880Z,10.43
2023-05-05T04:15:47.900Z,10.44
2023-05-05T04:18:14.706Z,10.41
2023-05-05T04:20:41.508Z,10.42
2023-05-05T04:23:08.268Z,10.43
2023-05-05T04:25:35.082Z,10.42
2023-05-05T04:28:01.831Z,10.41
2023-05-05T04:30:28.781Z,10.42
2023-05-05T04:32:55.638Z,10.44
2023-05-05T04:35:22.565Z,10.43
2023-05-05T04:37:49.527Z,10.42
2023-05-05T04:40:16.320Z,10.41
2023-05-05T04:42:43.039Z,10.42
2023-05-05T04:45:10.365Z,10.45
2023-05-05T04:47:40.777Z,10.45
2023-05-05T04:50:08.519Z,10.46
2023-05-05T04:52:35.754Z,10.47
2023-05-05T04:55:02.685Z,10.48
2023-05-05T04:57:30.238Z,10.44
2023-05-05T04:59:57.107Z,10.45
2023-05-05T05:02:24.082Z,10.44
2023-05-05T05:04:50.929Z,10.47
2023-05-05T05:07:17.721Z,10.45
2023-05-05T05:09:44.441Z,10.51
2023-05-05T05:12:11.260Z,10.52
2023-05-05T05:14:38.724Z,10.54
2023-05-05T05:17:06.496Z,10.54
2023-05-05T05:19:33.270Z,10.57
2023-05-05T05:22:00.128Z,10.59
2023-05-05T05:24:26.948Z,10.61
2023-05-05T05:26:53.826Z,10.62
2023-05-05T05:29:20.694Z,10.64
2023-05-05T05:31:47.455Z,10.67
2023-05-05T05:34:14.208Z,10.69
2023-05-05T05:36:40.945Z,10.68
2023-05-05T05:39:08.133Z,10.65
2023-05-05T05:41:34.878Z,10.68
2023-05-05T05:44:01.705Z,10.73
2023-05-05T05:46:28.458Z,10.75
2023-05-05T05:48:55.264Z,10.79
2023-05-05T05:51:22.010Z,10.84
2023-05-05T05:53:48.752Z,10.85
2023-05-05T05:56:15.585Z,10.93
2023-05-05T05:58:42.574Z,10.95
2023-05-05T06:01:09.488Z,11.00
2023-05-05T06:03:36.428Z,11.03
2023-05-05T06:06:03.351Z,11.07
2023-05-05T06:08:30.130Z,11.10
2023-05-05T06:10:57.053Z,11.16
2023-05-05T06:13:23.894Z,11.23
2023-05-05T06:15:50.709Z,11.24
2023-05-05T06:18:17.461Z,11.26
2023-05-05T06:20:44.434Z,11.27
2023-05-05T06:23:11.172Z,11.28
2023-05-05T06:25:37.888Z,11.31
2023-05-05T06:28:05.829Z,11.35
2023-05-05T06:30:32.947Z,11.39
2023-05-05T06:33:00.025Z,11.44
2023-05-05T06:35:26.949Z,11.46
2023-05-05T06:37:53.694Z,11.52
2023-05-05T06:40:21.085Z,11.59
2023-05-05T06:42:47.856Z,11.64
2023-05-05T06:45:14.895Z,11.73
2023-05-05T06:47:42.612Z,11.73
2023-05-05T06:50:10.198Z,11.85
2023-05-05T06:52:37.122Z,11.92
2023-05-05T06:55:04.637Z,12.03
2023-05-05T06:57:31.460Z,12.15
2023-05-05T06:59:58.295Z,12.26
2023-05-05T07:02:26.657Z,12.37
2023-05-05T07:04:55.640Z,12.53
2023-05-05T07:07:22.730Z,12.63
2023-05-05T07:09:49.510Z,12.67
2023-05-05T07:12:16.319Z,12.74
2023-05-05T07:14:43.339Z,12.80
2023-05-05T07:17:11.757Z,12.81
2023-05-05T07:19:38.621Z,12.78
2023-05-05T07:22:05.579Z,12.78
2023-05-05T07:24:32.345Z,12.79
2023-05-05T07:26:59.358Z,12.72
2023-05-05T07:29:26.098Z,12.76
2023-05-05T07:31:52.926Z,12.81
2023-05-05T07:34:19.788Z,12.91
2023-05-05T07:36:46.760Z,13.02
2023-05-05T07:39:15.381Z,13.19
2023-05-05T07:41:42.882Z,13.28
2023-05-05T07:44:09.689Z,13.37
2023-05-05T07:46:36.745Z,13.46
2023-05-05T07:49:03.945Z,13.49
2023-05-05T07:51:33.934Z,13.59
2023-05-05T07:54:01.591Z,13.64
2023-05-05T07:56:28.612Z,13.84
2023-05-05T07:58:56.125Z,14.04
2023-05-05T08:01:24.224Z,14.20
2023-05-05T08:03:51.521Z,14.32
2023-05-05T08:06:22.381Z,14.40
2023-05-05T08:08:49.883Z,14.41
2023-05-05T08:11:18.419Z,14.54
2023-05-05T08:13:45.809Z,14.57
2023-05-05T08:16:13.084Z,14.66
2023-05-05T08:18:39.970Z,14.76
2023-05-05T08:21:07.579Z,14.87
2023-05-05T08:23:35.386Z,15.01
2023-05-05T08:26:03.233Z,14.96
2023-05-05T08:28:30.313Z,14.72
2023-05-05T08:30:57.048Z,14.64
2023-05-05T08:33:23.828Z,14.56
2023-05-05T08:35:50.860Z,14.48
2023-05-05T08:38:19.169Z,14.43
2023-05-05T08:40:46.272Z,14.45
2023-05-05T08:43:13.123Z,14.47
2023-05-05T08:45:42.975Z,14.43
2023-05-05T08:48:10.336Z,14.51
2023-05-05T08:50:40.072Z,14.63
2023-05-05T08:53:10.489Z,14.77
2023-05-05T08:55:51.621Z,15.04
2023-05-05T08:58:19.540Z,15.50
2023-05-05T09:00:46.798Z,16.09
2023-05-05T09:03:14.644Z,16.89
2023-05-05T09:05:43.025Z,17.45
2023-05-05T09:08:13.709Z,18.06
2023-05-05T09:10:41.699Z,18.64
2023-05-05T09:13:09.245Z,19.24
2023-05-05T09:15:36.313Z,19.83
2023-05-05T09:18:03.809Z,20.01
2023-05-05T09:20:35.954Z,20.14
2023-05-05T09:23:15.543Z,20.12
2023-05-05T09:25:44.815Z,20.29
2023-05-05T09:28:13.747Z,20.32
2023-05-05T09:30:42.124Z,20.11
2023-05-05T09:33:09.502Z,19.68
2023-05-05T09:35:48.491Z,19.12
2023-05-05T09:38:15.591Z,18.80
2023-05-05T09:40:47.732Z,18.58
2023-05-05T09:43:15.271Z,18.53
2023-05-05T09:45:42.249Z,18.78
2023-05-05T09:48:24.237Z,18.80
2023-05-05T09:50:51.395Z,19.20
2023-05-05T09:53:18.314Z,19.69
2023-05-05T09:55:55.918Z,20.21
2023-05-05T09:58:30.807Z,20.73
2023-05-05T10:00:58.974Z,21.34
2023-05-05T10:03:26.390Z,21.28
2023-05-05T10:05:55.861Z,21.20
2023-05-05T10:08:24.430Z,20.82
2023-05-05T10:10:57.847Z,20.26
2023-05-05T10:13:25.526Z,20.09
2023-05-05T10:15:56.760Z,20.15
2023-05-05T10:18:25.524Z,20.21
2023-05-05T10:20:59.924Z,20.27
2023-05-05T10:23:49.787Z,20.10
2023-05-05T10:26:19.847Z,20.33
2023-05-05T10:28:55.648Z,20.22
2023-05-05T10:31:31.081Z,20.23
2023-05-05T10:34:05.122Z,20.33
2023-05-05T10:36:32.462Z,20.82
2023-05-05T10:39:00.321Z,21.08
2023-05-05T10:41:27.283Z,21.18
2023-05-05T10:43:57.400Z,20.89
2023-05-05T10:46:26.965Z,20.72
2023-05-05T10:49:02.969Z,20.46
2023-05-05T10:51:40.997Z,20.55
2023-05-05T10:54:17.159Z,20.57
2023-05-05T10:56:44.232Z,20.59
2023-05-05T10:59:38.931Z,20.67
2023-05-05T11:02:25.439Z,20.48
2023-05-05T11:05:16.806Z,20.33
2023-05-05T11:07:47.341Z,20.30
2023-05-05T11:10:16.211Z,20.68
2023-05-05T11:12:52.265Z,20.57
2023-05-05T11:15:28.453Z,20.26
2023-05-05T11:17:56.788Z,20.06
2023-05-05T11:20:45.459Z,19.71
2023-05-05T11:23:13.373Z,19.79
2023-05-05T11:25:44.707Z,19.68
2023-05-05T11:28:12.496Z,19.76
2023-05-05T11:30:58.678Z,19.97
2023-05-05T11:33:29.243Z,20.14
2023-05-05T11:35:57.019Z,20.16
2023-05-05T11:38:37.784Z,20.31
2023-05-05T11:41:14.507Z,20.80
2023-05-05T11:43:44.164Z,21.03
2023-05-05T11:46:14.972Z,20.89
2023-05-05T11:48:48.898Z,20.38
2023-05-05T11:51:17.200Z,19.88
2023-05-05T11:53:48.365Z,19.66
2023-05-05T11:56:20.599Z,19.26
2023-05-05T11:58:48.463Z,19.23
2023-05-05T12:01:16.059Z,19.48
2023-05-05T12:03:45.741Z,20.01
2023-05-05T12:06:13.335Z,20.13
2023-05-05T12:08:41.224Z,20.10
2023-05-05T12:11:09.795Z,20.13
2023-05-05T12:13:36.585Z,20.20
2023-05-05T12:16:15.081Z,20.06
2023-05-05T12:18:42.442Z,19.96
2023-05-05T12:21:18.924Z,19.78
2023-05-05T12:23:45.753Z,19.69
2023-05-05T12:26:31.946Z,19.94
2023-05-05T12:29:00.469Z,20.31
2023-05-05T12:31:36.669Z,20.44
2023-05-05T12:34:04.773Z,20.75
2023-05-05T12:36:33.626Z,21.06
2023-05-05T12:39:00.433Z,21.18
2023-05-05T12:41:27.617Z,21.07
2023-05-05T12:43:58.641Z,20.92
2023-05-05T12:46:26.677Z,20.79
2023-05-05T12:49:19.752Z,20.65
2023-05-05T12:51:57.029Z,20.75
2023-05-05T12:54:25.200Z,20.69
2023-05-05T12:56:52.086Z,20.44
2023-05-05T12:59:21.827Z,20.26
2023-05-05T13:01:50.800Z,19.94
2023-05-05T13:04:18.825Z,19.72
2023-05-05T13:06:48.565Z,19.38
2023-05-05T13:09:30.424Z,19.09
2023-05-05T13:11:57.218Z,18.92
2023-05-05T13:14:24.614Z,18.82
2023-05-05T13:16:51.422Z,18.85
2023-05-05T13:19:18.314Z,18.73
2023-05-05T13:21:45.117Z,18.66
2023-05-05T13:24:22.987Z,18.99
2023-05-05T13:26:53.343Z,19.17
2023-05-05T13:29:20.181Z,19.37
2023-05-05T13:31:47.157Z,19.37
2023-05-05T13:34:14.090Z,19.42
2023-05-05T13:36:40.899Z,19.50
2023-05-05T13:39:07.644Z,19.61
2023-05-05T13:41:34.501Z,19.71
2023-05-05T13:44:01.263Z,19.66
2023-05-05T13:46:28.086Z,19.68
2023-05-05T13:48:56.857Z,19.59
2023-05-05T13:51:23.806Z,19.60
2023-05-05T13:53:50.552Z,19.92
2023-05-05T13:56:18.331Z,20.67
2023-05-05T13:58:45.129Z,21.13
2023-05-05T14:01:12.052Z,20.95
2023-05-05T14:03:39.744Z,20.66
2023-05-05T14:06:07.694Z,20.25
2023-05-05T14:08:34.524Z,19.83
2023-05-05T14:11:02.079Z,19.43
2023-05-05T14:13:28.889Z,18.88
2023-05-05T14:15:58.333Z,18.14
2023-05-05T14:18:25.816Z,17.66
2023-05-05T14:20:52.709Z,17.27
2023-05-05T14:23:19.452Z,16.72
2023-05-05T14:25:46.375Z,16.44
2023-05-05T14:28:13.262Z,16.44
2023-05-05T14:30:40.135Z,16.36
2023-05-05T14:33:07.071Z,16.23
2023-05-05T14:35:34.045Z,15.82
2023-05-05T14:38:00.794Z,15.50
2023-05-05T14:40:29.562Z,15.39
2023-05-05T14:42:56.315Z,15.39
2023-05-05T14:45:23.126Z,15.38
2023-05-05T14:47:49.979Z,15.39
2023-05-05T14:50:16.741Z,15.49
2023-05-05T14:52:44.626Z,15.59
2023-05-05T14:55:12.008Z,15.88
2023-05-05T14:57:39.033Z,16.15
2023-05-05T15:00:09.504Z,16.48
2023-05-05T15:02:36.581Z,16.90
2023-05-05T15:05:03.396Z,17.28
2023-05-05T15:07:30.189Z,17.42
2023-05-05T15:09:57.147Z,17.25
2023-05-05T15:12:24.066Z,17.08
2023-05-05T15:14:50.827Z,16.88
2023-05-05T15:17:17.689Z,16.53
2023-05-05T15:19:44.429Z,16.26
2023-05-05T15:22:11.223Z,15.74
2023-05-05T15:24:38.173Z,15.61
2023-05-05T15:27:04.983Z,15.46
2023-05-05T15:29:31.835Z,15.39
2023-05-05T15:31:58.662Z,15.45
2023-05-05T15:34:26.268Z,15.61
2023-05-05T15:36:53.021Z,15.79
2023-05-05T15:39:19.844Z,16.06
2023-05-05T15:41:46.739Z,16.05
2023-05-05T15:44:13.558Z,16.04
2023-05-05T15:46:41.095Z,15.91
2023-05-05T15:49:07.884Z,16.00
2023-05-05T15:51:34.625Z,16.02
2023-05-05T15:54:01.724Z,16.02
2023-05-05T15:56:29.347Z,15.79
2023-05-05T15:58:56.845Z,15.42
2023-05-05T16:01:23.748Z,15.48
2023-05-05T16:03:50.610Z,15.40
2023-05-05T16:06:17.352Z,15.43
2023-05-05T16:08:44.226Z,15.52
2023-05-05T16:11:10.983Z,15.76
2023-05-05T16:13:39.276Z,15.98
2023-05-05T16:16:07.011Z,16.04
2023-05-05T16:18:33.948Z,16.09
2023-05-05T16:21:00.885Z,15.93
2023-05-05T16:23:27.749Z,15.89
2023-05-05T16:25:54.493Z,15.83
2023-05-05T16:28:21.215Z,15.89
2023-05-05T16:30:47.969Z,15.84
2023-05-05T16:33:14.730Z,15.79
2023-05-05T16:35:45.711Z,15.77
2023-05-05T16:38:13.627Z,15.66
2023-05-05T16:40:40.786Z,15.69
2023-05-05T16:43:07.589Z,15.65
2023-05-05T16:45:34.428Z,15.68
2023-05-05T16:48:01.288Z,15.57
2023-05-05T16:50:28.234Z,15.46
2023-05-05T16:52:54.972Z,15.42
2023-05-05T16:55:21.795Z,15.40
2023-05-05T16:57:48.712Z,15.35
2023-05-05T17:00:15.802Z,15.42
2023-05-05T17:02:42.611Z,15.48
2023-05-05T17:05:10.109Z,15.53
2023-05-05T17:07:37.172Z,15.59
2023-05-05T17:10:04.273Z,15.59
2023-05-05T17:12:31.067Z,15.79
2023-05-05T17:14:57.896Z,15.83
2023-05-05T17:17:24.743Z,15.85
2023-05-05T17:19:51.567Z,15.98
2023-05-05T17:22:18.349Z,16.12
2023-05-05T17:24:45.334Z,16.14
2023-05-05T17:27:12.877Z,16.08
2023-05-05T17:29:41.402Z,16.08
2023-05-05T17:32:09.197Z,16.06
2023-05-05T17:34:36.480Z,16.08
2023-05-05T17:37:03.361Z,16.07
2023-05-05T17:39:30.707Z,16.13
2023-05-05T17:41:57.434Z,16.07
2023-05-05T17:44:24.202Z,15.98
2023-05-05T17:46:50.916Z,15.90
2023-05-05T17:49:17.826Z,15.77
2023-05-05T17:51:44.625Z,15.76
2023-05-05T17:54:11.669Z,15.65
2023-05-05T17:56:38.519Z,15.61
2023-05-05T17:59:05.390Z,15.56
2023-05-05T18:01:32.231Z,15.52
2023-05-05T18:03:59.059Z,15.48
2023-05-05T18:06:26.044Z,15.56
2023-05-05T18:08:53.019Z,15.48
2023-05-05T18:11:21.354Z,15.38
2023-05-05T18:13:48.372Z,15.51
2023-05-05T18:16:15.185Z,15.50
2023-05-05T18:18:42.134Z,15.51
2023-05-05T18:21:12.338Z,15.50
2023-05-05T18:23:42.092Z,15.49
2023-05-05T18:26:09.197Z,15.49
2023-05-05T18:28:37.461Z,15.48
2023-05-05T18:31:04.280Z,15.48
2023-05-05T18:33:31.181Z,15.45
2023-05-05T18:35:57.997Z,15.40
2023-05-05T18:38:24.889Z,15.37
2023-05-05T18:40:51.697Z,15.34
2023-05-05T18:43:18.442Z,15.31
2023-05-05T18:45:45.456Z,15.32
2023-05-05T18:48:12.284Z,15.33
2023-05-05T18:50:39.061Z,15.32
2023-05-05T18:53:06.081Z,15.29
2023-05-05T18:55:32.825Z,15.27
2023-05-05T18:57:59.567Z,15.23
2023-05-05T19:00:26.394Z,15.19
2023-05-05T19:02:54.333Z,15.09
2023-05-05T19:05:21.357Z,15.11
2023-05-05T19:07:48.140Z,15.07
2023-05-05T19:10:14.929Z,15.09
2023-05-05T19:12:41.731Z,15.03
2023-05-05T19:15:09.151Z,15.06
2023-05-05T19:17:36.432Z,15.07
2023-05-05T19:20:03.375Z,15.08
2023-05-05T19:22:30.150Z,15.10
2023-05-05T19:24:56.865Z,15.06
2023-05-05T19:27:23.622Z,15.03
2023-05-05T19:29:52.602Z,14.99
2023-05-05T19:32:21.121Z,14.94
2023-05-05T19:34:48.481Z,14.90
2023-05-05T19:37:15.390Z,14.86
2023-05-05T19:39:44.409Z,14.77
2023-05-05T19:42:11.531Z,14.78
2023-05-05T19:44:38.254Z,14.74
2023-05-05T19:47:05.109Z,14.70
2023-05-05T19:49:32.099Z,14.61
2023-05-05T19:51:59.115Z,14.52
2023-05-05T19:54:26.358Z,14.40
2023-05-05T19:56:55.209Z,14.32
2023-05-05T19:59:22.134Z,14.22
2023-05-05T20:01:49.115Z,14.11
2023-05-05T20:04:16.016Z,14.04
2023-05-05T20:06:42.816Z,13.96
2023-05-05T20:09:09.582Z,13.86
2023-05-05T20:11:36.599Z,13.75
2023-05-05T20:14:03.356Z,13.67
2023-05-05T20:16:30.218Z,13.57
2023-05-05T20:18:57.094Z,13.47
2023-05-05T20:21:23.818Z,13.38
2023-05-05T20:23:50.537Z,13.32
2023-05-05T20:26:17.558Z,13.23
2023-05-05T20:28:45.988Z,13.14
2023-05-05T20:31:14.754Z,13.11
2023-05-05T20:33:41.743Z,13.02
2023-05-05T20:36:08.656Z,13.02
2023-05-05T20:38:35.406Z,12.98
2023-05-05T20:41:02.392Z,12.95
2023-05-05T20:43:29.220Z,12.90
2023-05-05T20:45:56.123Z,12.84
2023-05-05T20:48:22.921Z,12.77
2023-05-05T20:50:51.218Z,12.76
2023-05-05T20:53:19.312Z,12.71
2023-05-05T20:55:46.184Z,12.63
2023-05-05T20:58:13.005Z,12.58
2023-05-05T21:00:39.931Z,12.56
2023-05-05T21:03:06.816Z,12.53
2023-05-05T21:05:33.739Z,12.53
2023-05-05T21:08:01.359Z,12.52
2023-05-05T21:10:29.188Z,12.51
2023-05-05T21:12:56.193Z,12.46
2023-05-05T21:15:23.117Z,12.43
2023-05-05T21:17:49.998Z,12.37
2023-05-05T21:20:18.767Z,12.32
2023-05-05T21:22:46.240Z,12.30
2023-05-05T21:25:18.069Z,12.27
2023-05-05T21:27:45.111Z,12.26
2023-05-05T21:30:12.555Z,12.20
2023-05-05T21:32:40.619Z,12.19
2023-05-05T21:35:09.129Z,12.17
2023-05-05T21:37:38.131Z,12.11
2023-05-05T21:40:06.534Z,12.08
2023-05-05T21:42:33.290Z,12.10
2023-05-05T21:45:00.009Z,12.11
2023-05-05T21:47:27.754Z,12.10
2023-05-05T21:49:54.486Z,12.07
2023-05-05T21:52:21.212Z,12.07
2023-05-05T21:54:48.069Z,11.92
2023-05-05T21:57:14.878Z,12.00
2023-05-05T21:59:41.745Z,11.96
2023-05-05T22:02:08.649Z,11.95
2023-05-05T22:04:35.521Z,11.94
2023-05-05T22:07:02.316Z,11.96
2023-05-05T22:09:29.090Z,11.96
2023-05-05T22:11:55.817Z,11.94
2023-05-05T22:14:22.624Z,11.89
2023-05-05T22:16:49.513Z,11.83
2023-05-05T22:19:16.855Z,11.78
2023-05-05T22:21:43.810Z,11.73
2023-05-05T22:24:10.864Z,11.67
2023-05-05T22:26:39.923Z,11.60
2023-05-05T22:29:06.721Z,11.60
2023-05-05T22:31:33.604Z,11.58
2023-05-05T22:34:00.422Z,11.57
2023-05-05T22:36:27.666Z,11.51
2023-05-05T22:38:54.463Z,11.57
2023-05-05T22:41:21.300Z,11.56
2023-05-05T22:43:49.334Z,11.53
2023-05-05T22:46:16.099Z,11.52
2023-05-05T22:48:42.815Z,11.50
2023-05-05T22:51:09.527Z,11.46
2023-05-05T22:53:36.392Z,11.42
2023-05-05T22:56:03.177Z,11.40
2023-05-05T22:58:29.947Z,11.36
2023-05-05T23:00:56.760Z,11.35
2023-05-05T23:03:23.530Z,11.30
2023-05-05T23:05:50.254Z,11.26
2023-05-05T23:08:17.042Z,11.22
2023-05-05T23:10:43.751Z,11.20
2023-05-05T23:13:10.518Z,11.18
2023-05-05T23:15:37.454Z,11.15
2023-05-05T23:18:04.272Z,11.14
2023-05-05T23:20:31.158Z,11.12
2023-05-05T23:22:58.002Z,11.10
2023-05-05T23:25:24.736Z,11.08
2023-05-05T23:27:51.536Z,11.02
2023-05-05T23:30:19.012Z,11.00
2023-05-05T23:32:46.092Z,10.97
2023-05-05T23:35:12.940Z,10.96
2023-05-05T23:37:39.765Z,10.95
2023-05-05T23:40:07.129Z,10.91
2023-05-05T23:42:33.843Z,10.90
2023-05-05T23:45:01.006Z,10.91
2023-05-05T23:47:27.755Z,10.89
2023-05-05T23:49:54.540Z,10.88
2023-05-05T23:52:21.963Z,10.88
2023-05-05T23:54:48.746Z,10.78
2023-05-05T23:57:16.109Z,10.94
2023-05-05T23:59:42.909Z,10.94
